createdAt,value
2023-05-17T00:00:25.650Z,102187.31
2023-05-17T00:02:27.145Z,102189.06
2023-05-17T00:04:28.794Z,102188.19
2023-05-17T00:06:31.867Z,102197.88
2023-05-17T00:08:33.448Z,102202.25
2023-05-17T00:10:35.111Z,102195.22
2023-05-17T00:12:36.621Z,102196.06
2023-05-17T00:14:38.142Z,102204.88
2023-05-17T00:16:39.987Z,102205.75
2023-05-17T00:18:41.624Z,102204.84
2023-05-17T00:20:43.249Z,102201.34
2023-05-17T00:22:46.111Z,102201.34
2023-05-17T00:24:47.580Z,102207.50
2023-05-17T00:26:49.103Z,102214.56
2023-05-17T00:28:50.644Z,102213.69
2023-05-17T00:30:52.195Z,102206.66
2023-05-17T00:32:53.799Z,102208.41
2023-05-17T00:34:55.422Z,102213.69
2023-05-17T00:36:57.059Z,102216.34
2023-05-17T00:38:58.574Z,102218.97
2023-05-17T00:41:00.054Z,102219.00
2023-05-17T00:43:01.546Z,102219.88
2023-05-17T00:45:03.328Z,102216.38
2023-05-17T00:47:04.994Z,102217.25
2023-05-17T00:49:06.770Z,102218.09
2023-05-17T00:51:08.504Z,102213.72
2023-05-17T00:53:16.130Z,102220.75
2023-05-17T00:55:19.743Z,102219.84
2023-05-17T00:57:21.470Z,102222.50
2023-05-17T00:59:23.407Z,102215.47
2023-05-17T01:01:26.272Z,102219.84
2023-05-17T01:03:28.186Z,102216.34
2023-05-17T01:05:30.792Z,102218.09
2023-05-17T01:07:32.450Z,102219.84
2023-05-17T01:09:34.141Z,102222.47
2023-05-17T01:11:52.920Z,102223.31
2023-05-17T01:14:15.188Z,102230.31
2023-05-17T01:16:25.700Z,102232.94
2023-05-17T01:18:39.584Z,102232.06
2023-05-17T01:20:43.994Z,102229.44
2023-05-17T01:22:53.628Z,102222.41
2023-05-17T01:25:12.251Z,102223.28
2023-05-17T01:27:16.031Z,102226.78
2023-05-17T01:29:23.131Z,102227.66
2023-05-17T01:31:25.972Z,102232.03
2023-05-17T01:33:27.781Z,102228.53
2023-05-17T01:35:29.662Z,102233.72
2023-05-17T01:37:31.490Z,102234.59
2023-05-17T01:39:33.092Z,102241.63
2023-05-17T01:41:40.265Z,102241.59
2023-05-17T01:43:50.597Z,102240.72
2023-05-17T01:46:12.725Z,102243.31
2023-05-17T01:48:21.507Z,102246.81
2023-05-17T01:50:24.451Z,102255.56
2023-05-17T01:52:38.112Z,102253.78
2023-05-17T01:55:04.174Z,102252.03
2023-05-17T01:57:07.674Z,102263.44
2023-05-17T01:59:11.582Z,102258.16
2023-05-17T02:01:16.075Z,102265.19
2023-05-17T02:03:18.706Z,102265.19
2023-05-17T02:05:20.360Z,102266.91
2023-05-17T02:07:21.919Z,102270.41
2023-05-17T02:09:23.457Z,102267.78
2023-05-17T02:11:24.975Z,102269.53
2023-05-17T02:13:26.481Z,102269.53
2023-05-17T02:15:28.114Z,102269.53
2023-05-17T02:17:29.804Z,102266.88
2023-05-17T02:19:32.193Z,102274.75
2023-05-17T02:21:33.708Z,102273.00
2023-05-17T02:23:35.857Z,102270.34
2023-05-17T02:25:37.343Z,102281.75
2023-05-17T02:27:38.928Z,102284.38
2023-05-17T02:29:40.428Z,102282.59
2023-05-17T02:31:41.987Z,102286.97
2023-05-17T02:33:43.603Z,102285.22
2023-05-17T02:35:45.165Z,102290.47
2023-05-17T02:37:46.677Z,102288.66
2023-05-17T02:39:48.259Z,102294.78
2023-05-17T02:41:49.723Z,102297.41
2023-05-17T02:43:51.319Z,102298.28
2023-05-17T02:45:52.838Z,102294.75
2023-05-17T02:47:54.394Z,102300.91
2023-05-17T02:49:56.123Z,102302.66
2023-05-17T02:51:57.596Z,102298.28
2023-05-17T02:53:59.091Z,102300.94
2023-05-17T02:56:00.644Z,102308.00
2023-05-17T02:58:02.182Z,102306.25
2023-05-17T03:00:04.124Z,102310.63
2023-05-17T03:02:05.784Z,102316.75
2023-05-17T03:04:07.405Z,102316.75
2023-05-17T03:06:08.974Z,102322.00
2023-05-17T03:08:10.455Z,102323.75
2023-05-17T03:10:11.987Z,102324.63
2023-05-17T03:12:13.462Z,102328.09
2023-05-17T03:14:14.932Z,102331.59
2023-05-17T03:16:16.389Z,102334.19
2023-05-17T03:18:18.052Z,102336.81
2023-05-17T03:20:19.622Z,102339.41
2023-05-17T03:22:21.138Z,102335.88
2023-05-17T03:24:22.644Z,102334.09
2023-05-17T03:26:24.975Z,102338.44
2023-05-17T03:28:26.489Z,102333.16
2023-05-17T03:30:28.105Z,102334.88
2023-05-17T03:32:29.840Z,102339.25
2023-05-17T03:34:31.407Z,102347.13
2023-05-17T03:36:34.837Z,102352.38
2023-05-17T03:38:36.856Z,102361.09
2023-05-17T03:40:38.393Z,102357.59
2023-05-17T03:42:39.876Z,102361.09
2023-05-17T03:44:41.373Z,102367.22
2023-05-17T03:46:42.927Z,102367.13
2023-05-17T03:48:44.407Z,102365.38
2023-05-17T03:50:46.084Z,102373.19
2023-05-17T03:52:47.565Z,102375.81
2023-05-17T03:54:49.112Z,102374.94
2023-05-17T03:56:50.627Z,102377.56
2023-05-17T03:58:52.366Z,102371.44
2023-05-17T04:00:53.859Z,102376.69
2023-05-17T04:02:55.502Z,102375.78
2023-05-17T04:04:57.072Z,102382.81
2023-05-17T04:06:58.646Z,102387.19
2023-05-17T04:09:00.151Z,102384.56
2023-05-17T04:11:10.633Z,102389.84
2023-05-17T04:13:12.224Z,102389.84
2023-05-17T04:15:13.768Z,102389.88
2023-05-17T04:17:16.864Z,102396.00
2023-05-17T04:19:18.677Z,102402.19
2023-05-17T04:21:20.731Z,102399.63
2023-05-17T04:23:22.308Z,102406.72
2023-05-17T04:25:24.646Z,102402.44
2023-05-17T04:27:26.241Z,102411.25
2023-05-17T04:29:27.715Z,102416.59
2023-05-17T04:31:32.593Z,102419.38
2023-05-17T04:33:34.511Z,102416.75
2023-05-17T04:35:37.711Z,102411.47
2023-05-17T04:37:40.261Z,102415.88
2023-05-17T04:39:41.802Z,102408.91
2023-05-17T04:41:43.324Z,102415.94
2023-05-17T04:43:44.942Z,102417.78
2023-05-17T04:45:46.839Z,102420.41
2023-05-17T04:47:50.353Z,102420.44
2023-05-17T04:49:51.949Z,102422.25
2023-05-17T04:51:53.432Z,102429.28
2023-05-17T04:53:54.922Z,102430.09
2023-05-17T04:55:57.525Z,102430.03
2023-05-17T04:57:59.005Z,102433.53
2023-05-17T05:00:05.403Z,102433.53
2023-05-17T05:02:07.565Z,102438.78
2023-05-17T05:04:09.155Z,102444.88
2023-05-17T05:06:14.530Z,102452.78
2023-05-17T05:08:16.131Z,102454.50
2023-05-17T05:10:17.762Z,102461.50
2023-05-17T05:12:19.322Z,102464.16
2023-05-17T05:14:20.793Z,102466.75
2023-05-17T05:16:22.362Z,102465.00
2023-05-17T05:18:23.928Z,102474.66
2023-05-17T05:20:27.835Z,102472.00
2023-05-17T05:22:29.681Z,102472.03
2023-05-17T05:24:31.181Z,102479.06
2023-05-17T05:26:32.955Z,102475.53
2023-05-17T05:28:34.453Z,102480.84
2023-05-17T05:30:36.290Z,102486.13
2023-05-17T05:32:40.590Z,102482.66
2023-05-17T05:34:42.194Z,102490.56
2023-05-17T05:36:44.131Z,102489.72
2023-05-17T05:38:45.642Z,102495.16
2023-05-17T05:40:48.252Z,102491.75
2023-05-17T05:42:49.826Z,102498.84
2023-05-17T05:44:51.281Z,102508.63
2023-05-17T05:46:52.819Z,102509.56
2023-05-17T05:48:54.352Z,102512.25
2023-05-17T05:50:55.860Z,102517.53
2023-05-17T05:53:14.489Z,102522.81
2023-05-17T05:55:19.476Z,102519.28
2023-05-17T05:57:21.009Z,102534.19
2023-05-17T05:59:22.485Z,102534.19
2023-05-17T06:01:25.275Z,102535.94
2023-05-17T06:03:26.876Z,102537.72
2023-05-17T06:05:28.624Z,102540.34
2023-05-17T06:07:30.211Z,102538.63
2023-05-17T06:09:31.700Z,102543.91
2023-05-17T06:11:33.241Z,102554.50
2023-05-17T06:13:34.867Z,102551.03
2023-05-17T06:15:36.624Z,102548.44
2023-05-17T06:17:38.225Z,102558.16
2023-05-17T06:19:39.947Z,102555.59
2023-05-17T06:21:41.564Z,102556.50
2023-05-17T06:23:43.033Z,102563.56
2023-05-17T06:25:44.560Z,102561.78
2023-05-17T06:27:46.240Z,102570.59
2023-05-17T06:29:47.797Z,102565.31
2023-05-17T06:31:49.390Z,102567.94
2023-05-17T06:33:50.929Z,102565.31
2023-05-17T06:35:56.336Z,102570.59
2023-05-17T06:37:58.859Z,102567.06
2023-05-17T06:40:14.816Z,102568.81
2023-05-17T06:42:17.427Z,102576.72
2023-05-17T06:44:19.028Z,102574.97
2023-05-17T06:46:20.564Z,102575.84
2023-05-17T06:48:22.242Z,102574.09
2023-05-17T06:50:23.786Z,102585.56
2023-05-17T06:52:25.490Z,102590.81
2023-05-17T06:54:26.971Z,102587.31
2023-05-17T06:56:28.784Z,102611.03
2023-05-17T06:58:30.302Z,102611.00
2023-05-17T07:00:32.581Z,102614.50
2023-05-17T07:02:34.894Z,102625.06
2023-05-17T07:04:36.707Z,102623.31
2023-05-17T07:06:38.323Z,102621.59
2023-05-17T07:08:40.556Z,102638.25
2023-05-17T07:10:42.204Z,102639.13
2023-05-17T07:12:43.718Z,102641.75
2023-05-17T07:14:45.212Z,102639.19
2023-05-17T07:16:47.930Z,102644.50
2023-05-17T07:18:49.468Z,102640.03
2023-05-17T07:20:50.992Z,102642.59
2023-05-17T07:22:52.505Z,102643.34
2023-05-17T07:24:54.020Z,102649.50
2023-05-17T07:26:55.612Z,102651.25
2023-05-17T07:28:57.137Z,102643.38
2023-05-17T07:30:58.706Z,102646.06
2023-05-17T07:33:00.596Z,102650.50
2023-05-17T07:35:03.099Z,102652.28
2023-05-17T07:37:04.919Z,102650.59
2023-05-17T07:39:06.490Z,102652.41
2023-05-17T07:41:09.725Z,102648.94
2023-05-17T07:43:11.417Z,102652.41
2023-05-17T07:45:13.034Z,102663.84
2023-05-17T07:47:14.922Z,102673.53
2023-05-17T07:49:16.513Z,102663.91
2023-05-17T07:51:18.147Z,102664.78
2023-05-17T07:53:19.607Z,102668.28
2023-05-17T07:55:21.443Z,102663.91
2023-05-17T07:57:22.940Z,102662.16
2023-05-17T07:59:24.764Z,102661.34
2023-05-17T08:01:26.793Z,102666.63
2023-05-17T08:03:28.743Z,102669.28
2023-05-17T08:05:30.732Z,102670.22
2023-05-17T08:07:32.427Z,102667.56
2023-05-17T08:09:33.913Z,102681.66
2023-05-17T08:11:35.449Z,102684.28
2023-05-17T08:13:37.335Z,102680.78
2023-05-17T08:15:38.820Z,102687.75
2023-05-17T08:17:40.405Z,102689.44
2023-05-17T08:19:42.100Z,102696.44
2023-05-17T08:21:44.384Z,102711.41
2023-05-17T08:23:46.314Z,102714.03
2023-05-17T08:25:47.856Z,102707.00
2023-05-17T08:27:49.333Z,102719.34
2023-05-17T08:29:51.802Z,102708.75
2023-05-17T08:31:54.847Z,102711.44
2023-05-17T08:33:56.356Z,102703.59
2023-05-17T08:36:00.940Z,102704.56
2023-05-17T08:38:02.503Z,102699.31
2023-05-17T08:40:06.410Z,102705.44
2023-05-17T08:42:08.431Z,102705.47
2023-05-17T08:44:11.328Z,102705.47
2023-05-17T08:46:14.639Z,102702.84
2023-05-17T08:48:17.568Z,102713.38
2023-05-17T08:50:19.297Z,102715.13
2023-05-17T08:52:21.883Z,102711.63
2023-05-17T08:54:23.382Z,102711.66
2023-05-17T08:56:26.553Z,102716.94
2023-05-17T08:58:32.482Z,102716.06
2023-05-17T09:00:38.212Z,102729.22
2023-05-17T09:02:42.766Z,102728.34
2023-05-17T09:04:44.993Z,102731.88
2023-05-17T09:06:47.080Z,102734.50
2023-05-17T09:08:52.766Z,102732.75
2023-05-17T09:10:54.495Z,102728.34
2023-05-17T09:12:56.374Z,102739.78
2023-05-17T09:15:12.846Z,102744.25
2023-05-17T09:17:18.531Z,102746.88
2023-05-17T09:19:20.121Z,102741.59
2023-05-17T09:21:23.712Z,102751.28
2023-05-17T09:23:25.219Z,102764.53
2023-05-17T09:25:26.942Z,102753.94
2023-05-17T09:27:31.655Z,102756.59
2023-05-17T09:29:34.051Z,102754.78
2023-05-17T09:31:35.985Z,102744.19
2023-05-17T09:33:47.799Z,102751.22
2023-05-17T09:35:49.421Z,102750.34
2023-05-17T09:37:51.174Z,102747.66
2023-05-17T09:39:54.944Z,102744.09
2023-05-17T09:41:57.130Z,102744.16
2023-05-17T09:44:01.102Z,102745.94
2023-05-17T09:46:02.596Z,102750.38
2023-05-17T09:48:17.600Z,102753.00
2023-05-17T09:50:23.799Z,102749.53
2023-05-17T09:52:37.030Z,102764.53
2023-05-17T09:54:41.269Z,102753.94
2023-05-17T09:56:43.214Z,102762.75
2023-05-17T09:58:44.873Z,102766.28
2023-05-17T10:00:52.220Z,102755.72
2023-05-17T10:02:53.856Z,102755.72
2023-05-17T10:04:57.234Z,102759.22
2023-05-17T10:07:00.293Z,102768.03
2023-05-17T10:09:02.405Z,102761.88
2023-05-17T10:11:08.566Z,102769.81
2023-05-17T10:13:15.689Z,102759.25
2023-05-17T10:15:18.505Z,102760.09
2023-05-17T10:17:20.388Z,102765.38
2023-05-17T10:19:23.797Z,102756.56
2023-05-17T10:21:25.935Z,102760.09
2023-05-17T10:23:27.915Z,102768.06
2023-05-17T10:25:30.204Z,102769.78
2023-05-17T10:27:32.134Z,102748.63
2023-05-17T10:29:37.014Z,102760.94
2023-05-17T10:31:43.162Z,102768.03
2023-05-17T10:33:50.630Z,102778.59
2023-05-17T10:35:53.301Z,102783.00
2023-05-17T10:37:54.868Z,102781.19
2023-05-17T10:39:57.074Z,102787.31
2023-05-17T10:42:13.577Z,102781.13
2023-05-17T10:44:16.776Z,102778.50
2023-05-17T10:46:22.699Z,102768.84
2023-05-17T10:48:28.466Z,102772.38
2023-05-17T10:50:30.457Z,102771.50
2023-05-17T10:52:32.187Z,102768.03
2023-05-17T10:54:39.329Z,102769.78
2023-05-17T10:56:47.480Z,102758.22
2023-05-17T10:59:08.940Z,102759.81
2023-05-17T11:01:11.216Z,102761.63
2023-05-17T11:03:30.770Z,102757.34
2023-05-17T11:05:32.669Z,102757.44
2023-05-17T11:07:37.479Z,102760.94
2023-05-17T11:09:40.668Z,102771.56
2023-05-17T11:12:05.424Z,102768.06
2023-05-17T11:14:11.485Z,102768.91
2023-05-17T11:16:19.020Z,102767.16
2023-05-17T11:18:30.116Z,102768.03
2023-05-17T11:20:35.068Z,102771.56
2023-05-17T11:22:39.992Z,102757.44
2023-05-17T11:24:44.543Z,102765.38
2023-05-17T11:26:46.393Z,102759.19
2023-05-17T11:28:48.201Z,102764.34
2023-05-17T11:30:53.699Z,102764.09
2023-05-17T11:33:02.959Z,102762.38
2023-05-17T11:35:05.462Z,102762.56
2023-05-17T11:37:11.948Z,102761.75
2023-05-17T11:39:17.202Z,102771.53
2023-05-17T11:43:31.188Z,102777.72
2023-05-17T11:45:42.342Z,102769.78
2023-05-17T11:47:48.284Z,102774.19
2023-05-17T11:49:54.352Z,102764.47
2023-05-17T11:51:57.801Z,102769.75
2023-05-17T11:54:03.445Z,102773.03
2023-05-17T11:56:05.679Z,102766.34
2023-05-17T11:58:11.959Z,102766.22
2023-05-17T12:00:14.108Z,102770.50
2023-05-17T12:02:30.073Z,102764.47
2023-05-17T12:04:37.452Z,102782.31
2023-05-17T12:06:39.990Z,102778.94
2023-05-17T12:08:46.769Z,102779.00
2023-05-17T12:10:52.619Z,102779.81
2023-05-17T12:12:54.205Z,102788.66
2023-05-17T12:14:55.957Z,102781.72
2023-05-17T12:17:00.816Z,102777.38
2023-05-17T12:19:02.609Z,102782.66
2023-05-17T12:21:05.876Z,102778.28
2023-05-17T12:23:07.382Z,102783.63
2023-05-17T12:25:20.061Z,102776.56
2023-05-17T12:27:27.642Z,102779.22
2023-05-17T12:29:30.225Z,102787.28
2023-05-17T12:31:36.638Z,102782.91
2023-05-17T12:33:43.284Z,102794.41
2023-05-17T12:35:45.449Z,102792.69
2023-05-17T12:37:47.263Z,102801.53
2023-05-17T12:39:49.107Z,102801.53
2023-05-17T12:41:52.097Z,102803.31
2023-05-17T12:44:06.259Z,102798.91
2023-05-17T12:46:20.501Z,102812.13
2023-05-17T12:48:26.525Z,102802.41
2023-05-17T12:50:31.781Z,102800.56
2023-05-17T12:52:35.178Z,102804.13
2023-05-17T12:54:39.450Z,102799.69
2023-05-17T12:56:44.817Z,102804.09
2023-05-17T12:59:12.256Z,102806.59
2023-05-17T13:01:14.727Z,102806.47
2023-05-17T13:03:16.363Z,102808.97
2023-05-17T13:05:21.432Z,102808.88
2023-05-17T13:07:24.239Z,102804.44
2023-05-17T13:09:30.785Z,102808.75
2023-05-17T13:11:32.452Z,102802.50
2023-05-17T13:13:34.295Z,102789.19
2023-05-17T13:15:36.061Z,102791.88
2023-05-17T13:17:40.585Z,102799.81
2023-05-17T13:19:42.778Z,102802.66
2023-05-17T13:21:44.382Z,102810.72
2023-05-17T13:23:50.077Z,102807.41
2023-05-17T13:25:51.706Z,102803.16
2023-05-17T13:27:55.358Z,102805.00
2023-05-17T13:29:56.863Z,102801.47
2023-05-17T13:31:58.365Z,102811.09
2023-05-17T13:34:00.033Z,102811.03
2023-05-17T13:36:01.642Z,102803.84
2023-05-17T13:38:03.195Z,102815.22
2023-05-17T13:40:05.242Z,102803.66
2023-05-17T13:42:06.828Z,102807.09
2023-05-17T13:44:08.907Z,102804.59
2023-05-17T13:46:10.511Z,102795.84
2023-05-17T13:48:12.163Z,102799.44
2023-05-17T13:50:17.228Z,102787.19
2023-05-17T13:52:18.937Z,102795.09
2023-05-17T13:54:20.793Z,102795.97
2023-05-17T13:56:23.697Z,102792.31
2023-05-17T13:58:25.273Z,102794.88
2023-05-17T14:00:27.021Z,102790.41
2023-05-17T14:02:28.639Z,102790.41
2023-05-17T14:04:30.207Z,102788.66
2023-05-17T14:06:31.823Z,102789.56
2023-05-17T14:08:34.184Z,102795.78
2023-05-17T14:10:36.480Z,102802.94
2023-05-17T14:12:38.789Z,102794.19
2023-05-17T14:14:40.304Z,102795.16
2023-05-17T14:16:41.866Z,102800.41
2023-05-17T14:18:43.565Z,102809.19
2023-05-17T14:20:45.192Z,102804.81
2023-05-17T14:22:46.708Z,102807.47
2023-05-17T14:24:48.249Z,102803.16
2023-05-17T14:26:49.761Z,102809.38
2023-05-17T14:28:51.391Z,102795.28
2023-05-17T14:30:53.290Z,102802.41
2023-05-17T14:32:54.867Z,102809.44
2023-05-17T14:34:56.465Z,102805.00
2023-05-17T14:36:57.945Z,102808.53
2023-05-17T14:38:59.523Z,102811.19
2023-05-17T14:41:02.253Z,102807.63
2023-05-17T14:43:03.894Z,102807.59
2023-05-17T14:45:06.681Z,102809.41
2023-05-17T14:47:08.545Z,102812.09
2023-05-17T14:49:10.282Z,102812.06
2023-05-17T14:51:12.261Z,102802.38
2023-05-17T14:53:13.831Z,102810.31
2023-05-17T14:55:16.819Z,102807.66
2023-05-17T14:57:18.716Z,102812.91
2023-05-17T14:59:20.591Z,102804.13
2023-05-17T15:01:22.520Z,102810.28
2023-05-17T15:03:24.052Z,102808.44
2023-05-17T15:05:25.778Z,102816.31
2023-05-17T15:07:27.445Z,102810.25
2023-05-17T15:09:30.959Z,102814.69
2023-05-17T15:11:33.679Z,102812.97
2023-05-17T15:13:35.199Z,102812.97
2023-05-17T15:15:36.809Z,102814.75
2023-05-17T15:17:38.435Z,102812.13
2023-05-17T15:19:40.057Z,102828.84
2023-05-17T15:21:42.681Z,102822.69
2023-05-17T15:23:44.478Z,102824.44
2023-05-17T15:25:46.439Z,102822.69
2023-05-17T15:27:49.127Z,102821.81
2023-05-17T15:29:50.596Z,102827.97
2023-05-17T15:31:52.250Z,102822.72
2023-05-17T15:33:53.902Z,102823.59
2023-05-17T15:35:55.531Z,102820.06
2023-05-17T15:37:59.347Z,102822.72
2023-05-17T15:40:10.814Z,102821.84
2023-05-17T15:42:12.308Z,102815.63
2023-05-17T15:44:13.876Z,102813.88
2023-05-17T15:46:15.442Z,102817.41
2023-05-17T15:48:17.992Z,102817.38
2023-05-17T15:50:19.577Z,102823.56
2023-05-17T15:52:21.052Z,102821.81
2023-05-17T15:54:22.529Z,102820.06
2023-05-17T15:56:24.429Z,102820.06
2023-05-17T15:58:32.910Z,102813.81
2023-05-17T16:00:34.416Z,102823.50
2023-05-17T16:02:36.131Z,102827.84
2023-05-17T16:04:37.939Z,102829.63
2023-05-17T16:06:39.732Z,102819.91
2023-05-17T16:08:41.932Z,102823.50
2023-05-17T16:10:44.071Z,102820.91
2023-05-17T16:12:47.361Z,102823.59
2023-05-17T16:14:48.914Z,102826.19
2023-05-17T16:16:51.222Z,102828.88
2023-05-17T16:18:52.863Z,102828.88
2023-05-17T16:21:03.653Z,102829.75
2023-05-17T16:23:06.077Z,102836.78
2023-05-17T16:25:07.715Z,102840.34
2023-05-17T16:27:09.365Z,102833.31
2023-05-17T16:29:13.565Z,102833.31
2023-05-17T16:31:15.188Z,102839.47
2023-05-17T16:33:16.814Z,102835.91
2023-05-17T16:35:22.168Z,102839.41
2023-05-17T16:37:23.829Z,102842.06
2023-05-17T16:39:27.148Z,102844.69
2023-05-17T16:41:31.301Z,102844.72
2023-05-17T16:43:32.924Z,102842.09
2023-05-17T16:45:34.725Z,102842.06
2023-05-17T16:47:36.445Z,102842.09
2023-05-17T16:49:38.686Z,102844.75
2023-05-17T16:51:40.333Z,102846.53
2023-05-17T16:53:42.126Z,102838.59
2023-05-17T16:55:43.718Z,102840.31
2023-05-17T16:57:45.233Z,102841.22
2023-05-17T16:59:46.696Z,102848.28
2023-05-17T17:01:48.253Z,102847.38
2023-05-17T17:03:49.884Z,102853.56
2023-05-17T17:05:51.449Z,102851.75
2023-05-17T17:07:53.311Z,102854.38
2023-05-17T17:09:54.791Z,102852.63
2023-05-17T17:11:56.307Z,102857.03
2023-05-17T17:13:58.668Z,102858.78
2023-05-17T17:16:00.270Z,102859.66
2023-05-17T17:18:02.007Z,102868.44
2023-05-17T17:20:09.055Z,102868.38
2023-05-17T17:22:12.101Z,102870.19
2023-05-17T17:24:13.706Z,102872.78
2023-05-17T17:26:15.996Z,102874.53
2023-05-17T17:28:17.506Z,102876.31
2023-05-17T17:30:19.113Z,102870.13
2023-05-17T17:32:20.674Z,102871.88
2023-05-17T17:34:22.206Z,102871.03
2023-05-17T17:36:27.040Z,102880.78
2023-05-17T17:38:28.605Z,102877.28
2023-05-17T17:40:30.507Z,102879.91
2023-05-17T17:42:32.409Z,102878.06
2023-05-17T17:44:33.904Z,102878.03
2023-05-17T17:46:35.528Z,102882.47
2023-05-17T17:48:37.119Z,102886.88
2023-05-17T17:50:38.648Z,102881.59
2023-05-17T17:52:40.219Z,102884.22
2023-05-17T17:54:42.486Z,102883.31
2023-05-17T17:56:45.485Z,102876.25
2023-05-17T17:58:48.143Z,102888.56
2023-05-17T18:00:49.686Z,102891.22
2023-05-17T18:02:51.466Z,102889.47
2023-05-17T18:04:53.097Z,102890.34
2023-05-17T18:06:55.001Z,102892.06
2023-05-17T18:08:57.791Z,102896.44
2023-05-17T18:10:59.309Z,102901.75
2023-05-17T18:13:00.976Z,102901.75
2023-05-17T18:15:02.738Z,102915.81
2023-05-17T18:17:04.497Z,102910.56
2023-05-17T18:19:06.122Z,102910.50
2023-05-17T18:21:09.279Z,102912.16
2023-05-17T18:23:10.938Z,102904.19
2023-05-17T18:25:12.465Z,102916.44
2023-05-17T18:27:14.308Z,102917.34
2023-05-17T18:29:15.873Z,102913.81
2023-05-17T18:31:18.515Z,102918.19
2023-05-17T18:33:20.417Z,102921.69
2023-05-17T18:35:22.046Z,102920.81
2023-05-17T18:37:23.601Z,102927.94
2023-05-17T18:39:25.117Z,102918.16
2023-05-17T18:41:27.154Z,102918.06
2023-05-17T18:43:31.080Z,102914.47
2023-05-17T18:45:36.256Z,102917.06
2023-05-17T18:47:37.833Z,102924.06
2023-05-17T18:49:44.944Z,102917.88
2023-05-17T18:51:46.696Z,102925.88
2023-05-17T18:53:48.230Z,102917.97
2023-05-17T18:55:49.751Z,102920.59
2023-05-17T18:57:51.269Z,102920.56
2023-05-17T18:59:52.829Z,102921.44
2023-05-17T19:01:54.435Z,102914.38
2023-05-17T19:03:56.482Z,102918.88
2023-05-17T19:05:58.084Z,102928.66
2023-05-17T19:07:59.772Z,102923.38
2023-05-17T19:10:01.655Z,102920.75
2023-05-17T19:12:03.515Z,102919.91
2023-05-17T19:14:05.801Z,102923.44
2023-05-17T19:16:07.626Z,102926.06
2023-05-17T19:18:09.140Z,102923.44
2023-05-17T19:20:11.050Z,102922.56
2023-05-17T19:22:12.962Z,102926.09
2023-05-17T19:24:14.537Z,102918.97
2023-05-17T19:26:16.212Z,102917.13
2023-05-17T19:28:18.044Z,102929.47
2023-05-17T19:30:19.527Z,102926.78
2023-05-17T19:32:22.755Z,102932.94
2023-05-17T19:34:24.323Z,102929.38
2023-05-17T19:36:25.964Z,102930.19
2023-05-17T19:38:27.514Z,102936.25
2023-05-17T19:40:29.198Z,102938.03
2023-05-17T19:42:30.915Z,102935.41
2023-05-17T19:44:32.574Z,102930.06
2023-05-17T19:46:34.195Z,102936.28
2023-05-17T19:48:36.000Z,102932.81
2023-05-17T19:50:37.723Z,102932.84
2023-05-17T19:52:39.394Z,102938.13
2023-05-17T19:54:41.152Z,102939.84
2023-05-17T19:56:42.666Z,102940.66
2023-05-17T19:58:44.205Z,102940.59
2023-05-17T20:00:45.866Z,102938.75
2023-05-17T20:02:47.474Z,102937.03
2023-05-17T20:04:49.210Z,102941.50
2023-05-17T20:06:51.130Z,102937.06
2023-05-17T20:08:52.633Z,102932.72
2023-05-17T20:10:54.169Z,102935.41
2023-05-17T20:12:56.025Z,102927.50
2023-05-17T20:14:57.698Z,102929.25
2023-05-17T20:16:59.373Z,102929.28
2023-05-17T20:19:01.153Z,102932.81
2023-05-17T20:21:02.797Z,102937.22
2023-05-17T20:23:04.297Z,102939.81
2023-05-17T20:25:06.032Z,102941.56
2023-05-17T20:27:07.574Z,102929.25
2023-05-17T20:29:09.249Z,102934.53
2023-05-17T20:31:11.104Z,102938.03
2023-05-17T20:33:12.704Z,102936.28
2023-05-17T20:35:14.269Z,102938.88
2023-05-17T20:37:15.840Z,102934.50
2023-05-17T20:39:17.384Z,102936.22
2023-05-17T20:41:19.488Z,102934.47
2023-05-17T20:43:21.124Z,102935.28
2023-05-17T20:45:22.845Z,102936.97
2023-05-17T20:47:24.737Z,102932.56
2023-05-17T20:49:26.312Z,102934.25
2023-05-17T20:51:27.820Z,102938.63
2023-05-17T20:53:30.410Z,102940.34
2023-05-17T20:55:31.936Z,102942.13
2023-05-17T20:57:33.432Z,102937.69
2023-05-17T20:59:34.943Z,102939.47
2023-05-17T21:01:37.334Z,102940.31
2023-05-17T21:03:39.986Z,102940.28
2023-05-17T21:05:41.885Z,102936.72
2023-05-17T21:07:43.394Z,102939.28
2023-05-17T21:09:44.883Z,102940.13
2023-05-17T21:11:46.412Z,102940.13
2023-05-17T21:13:51.309Z,102932.97
2023-05-17T21:15:56.381Z,102932.84
2023-05-17T21:17:57.986Z,102924.91
2023-05-17T21:19:59.510Z,102933.69
2023-05-17T21:22:01.025Z,102931.09
2023-05-17T21:24:02.983Z,102933.69
2023-05-17T21:26:06.740Z,102934.56
2023-05-17T21:28:08.481Z,102931.94
2023-05-17T21:30:10.451Z,102931.91
2023-05-17T21:32:11.941Z,102930.13
2023-05-17T21:34:13.496Z,102925.69
2023-05-17T21:36:15.046Z,102930.97
2023-05-17T21:38:16.637Z,102939.69
2023-05-17T21:40:19.384Z,102941.41
2023-05-17T21:42:21.353Z,102937.88
2023-05-17T21:44:22.918Z,102938.69
2023-05-17T21:46:24.628Z,102944.72
2023-05-17T21:48:26.217Z,102944.69
2023-05-17T21:50:28.037Z,102945.53
2023-05-17T21:52:29.847Z,102937.63
2023-05-17T21:54:31.391Z,102941.97
2023-05-17T21:56:33.054Z,102946.34
2023-05-17T21:58:34.574Z,102933.13
2023-05-17T22:00:36.381Z,102940.16
2023-05-17T22:02:38.157Z,102940.13
2023-05-17T22:04:41.028Z,102937.44
2023-05-17T22:06:42.817Z,102940.03
2023-05-17T22:08:45.223Z,102938.25
2023-05-17T22:10:47.527Z,102935.59
2023-05-17T22:12:50.241Z,102934.69
2023-05-17T22:14:53.636Z,102936.44
2023-05-17T22:16:56.031Z,102936.41
2023-05-17T22:19:00.361Z,102931.94
2023-05-17T22:21:01.892Z,102940.72
2023-05-17T22:23:04.294Z,102935.44
2023-05-17T22:25:06.880Z,102941.63
2023-05-17T22:27:08.451Z,102939.91
2023-05-17T22:29:10.111Z,102941.63
2023-05-17T22:31:14.699Z,102943.34
2023-05-17T22:33:16.316Z,102945.97
2023-05-17T22:35:17.828Z,102940.78
2023-05-17T22:37:22.592Z,102946.97
2023-05-17T22:39:24.279Z,102946.94
2023-05-17T22:41:26.557Z,102956.63
2023-05-17T22:43:28.109Z,102950.50
2023-05-17T22:45:33.099Z,102943.50
2023-05-17T22:47:35.279Z,102939.97
2023-05-17T22:49:36.895Z,102939.03
2023-05-17T22:51:38.921Z,102943.44
2023-05-17T22:53:40.445Z,102946.06
2023-05-17T22:55:48.546Z,102949.59
2023-05-17T22:57:50.071Z,102950.47
2023-05-17T22:59:51.562Z,102957.50
2023-05-17T23:01:53.161Z,102959.25
2023-05-17T23:03:54.712Z,102957.47
2023-05-17T23:06:02.840Z,102964.41
2023-05-17T23:08:05.381Z,102963.53
2023-05-17T23:10:10.973Z,102968.78
2023-05-17T23:12:14.483Z,102961.66
2023-05-17T23:14:17.454Z,102961.69
2023-05-17T23:16:19.044Z,102964.31
2023-05-17T23:18:20.787Z,102961.66
2023-05-17T23:20:23.503Z,102958.16
2023-05-17T23:22:31.218Z,102957.22
2023-05-17T23:24:38.416Z,102952.88